sensor_id;sensor_type;location;lat;lon;timestamp;P1;durP1;ratioP1;P2;durP2;ratioP2
75628;SDS011;64213;46.452;16.994;2023-09-12T00:02:51;16.15;;;8.73;;
75628;SDS011;64213;46.452;16.994;2023-09-12T00:05:55;18.17;;;9.10;;
75628;SDS011;64213;46.452;16.994;2023-09-12T00:08:58;23.00;;;9.23;;
75628;SDS011;64213;46.452;16.994;2023-09-12T00:12:01;20.35;;;9.43;;
75628;SDS011;64213;46.452;16.994;2023-09-12T00:15:04;16.10;;;8.50;;
75628;SDS011;64213;46.452;16.994;2023-09-12T00:18:07;15.93;;;8.77;;
75628;SDS011;64213;46.452;16.994;2023-09-12T00:21:10;17.98;;;9.05;;
75628;SDS011;64213;46.452;16.994;2023-09-12T00:24:12;17.37;;;9.70;;
75628;SDS011;64213;46.452;16.994;2023-09-12T00:27:14;15.45;;;9.13;;
75628;SDS011;64213;46.452;16.994;2023-09-12T00:30:17;18.60;;;9.10;;
75628;SDS011;64213;46.452;16.994;2023-09-12T00:33:19;15.50;;;8.30;;
75628;SDS011;64213;46.452;16.994;2023-09-12T00:36:22;18.27;;;8.73;;
75628;SDS011;64213;46.452;16.994;2023-09-12T00:39:24;15.75;;;7.50;;
75628;SDS011;64213;46.452;16.994;2023-09-12T00:42:27;16.30;;;7.72;;
75628;SDS011;64213;46.452;16.994;2023-09-12T00:45:29;15.63;;;8.00;;
75628;SDS011;64213;46.452;16.994;2023-09-12T00:48:32;16.05;;;8.10;;
75628;SDS011;64213;46.452;16.994;2023-09-12T00:51:35;14.07;;;7.72;;
75628;SDS011;64213;46.452;16.994;2023-09-12T00:54:39;14.02;;;7.65;;
75628;SDS011;64213;46.452;16.994;2023-09-12T00:57:42;17.15;;;7.18;;
75628;SDS011;64213;46.452;16.994;2023-09-12T01:00:45;14.50;;;6.87;;
75628;SDS011;64213;46.452;16.994;2023-09-12T01:03:48;14.45;;;6.75;;
75628;SDS011;64213;46.452;16.994;2023-09-12T01:06:51;13.02;;;7.12;;
75628;SDS011;64213;46.452;16.994;2023-09-12T01:09:54;15.75;;;6.82;;
75628;SDS011;64213;46.452;16.994;2023-09-12T01:12:56;18.08;;;6.97;;
75628;SDS011;64213;46.452;16.994;2023-09-12T01:15:58;15.90;;;7.80;;
75628;SDS011;64213;46.452;16.994;2023-09-12T01:19:01;15.50;;;7.37;;
75628;SDS011;64213;46.452;16.994;2023-09-12T01:29:02;15.57;;;6.70;;
75628;SDS011;64213;46.452;16.994;2023-09-12T01:32:08;15.33;;;7.43;;
75628;SDS011;64213;46.452;16.994;2023-09-12T01:35:11;13.75;;;7.28;;
75628;SDS011;64213;46.452;16.994;2023-09-12T01:38:14;17.90;;;7.80;;
75628;SDS011;64213;46.452;16.994;2023-09-12T01:41:16;15.60;;;7.72;;
75628;SDS011;64213;46.452;16.994;2023-09-12T01:44:20;14.82;;;8.15;;
75628;SDS011;64213;46.452;16.994;2023-09-12T01:47:26;16.37;;;7.47;;
75628;SDS011;64213;46.452;16.994;2023-09-12T01:50:30;17.27;;;7.15;;
75628;SDS011;64213;46.452;16.994;2023-09-12T01:53:33;15.70;;;7.90;;
75628;SDS011;64213;46.452;16.994;2023-09-12T01:56:37;15.98;;;7.87;;
75628;SDS011;64213;46.452;16.994;2023-09-12T01:59:40;14.20;;;7.30;;
75628;SDS011;64213;46.452;16.994;2023-09-12T02:02:42;16.40;;;7.77;;
75628;SDS011;64213;46.452;16.994;2023-09-12T02:05:45;14.57;;;7.25;;
75628;SDS011;64213;46.452;16.994;2023-09-12T02:08:47;13.98;;;7.62;;
75628;SDS011;64213;46.452;16.994;2023-09-12T02:11:50;17.80;;;7.55;;
75628;SDS011;64213;46.452;16.994;2023-09-12T02:14:53;15.52;;;7.82;;
75628;SDS011;64213;46.452;16.994;2023-09-12T02:17:55;14.60;;;7.73;;
75628;SDS011;64213;46.452;16.994;2023-09-12T02:20:58;14.65;;;7.90;;
75628;SDS011;64213;46.452;16.994;2023-09-12T02:24:00;17.52;;;8.57;;
75628;SDS011;64213;46.452;16.994;2023-09-12T02:27:03;16.30;;;7.60;;
75628;SDS011;64213;46.452;16.994;2023-09-12T02:30:05;14.30;;;8.27;;
75628;SDS011;64213;46.452;16.994;2023-09-12T02:33:08;17.03;;;7.90;;
75628;SDS011;64213;46.452;16.994;2023-09-12T02:36:11;17.35;;;8.18;;
75628;SDS011;64213;46.452;16.994;2023-09-12T02:39:13;16.92;;;8.15;;
75628;SDS011;64213;46.452;16.994;2023-09-12T02:42:16;16.27;;;7.82;;
75628;SDS011;64213;46.452;16.994;2023-09-12T02:45:18;17.25;;;8.43;;
75628;SDS011;64213;46.452;16.994;2023-09-12T02:48:20;17.13;;;8.17;;
75628;SDS011;64213;46.452;16.994;2023-09-12T02:51:24;14.25;;;7.50;;
75628;SDS011;64213;46.452;16.994;2023-09-12T02:54:29;16.45;;;8.98;;
75628;SDS011;64213;46.452;16.994;2023-09-12T02:57:32;16.25;;;8.07;;
75628;SDS011;64213;46.452;16.994;2023-09-12T03:00:37;17.62;;;8.70;;
75628;SDS011;64213;46.452;16.994;2023-09-12T03:03:42;19.80;;;9.30;;
75628;SDS011;64213;46.452;16.994;2023-09-12T03:06:44;17.73;;;8.68;;
75628;SDS011;64213;46.452;16.994;2023-09-12T03:09:49;18.77;;;8.45;;
75628;SDS011;64213;46.452;16.994;2023-09-12T03:12:52;16.20;;;8.20;;
75628;SDS011;64213;46.452;16.994;2023-09-12T03:15:54;15.48;;;8.50;;
75628;SDS011;64213;46.452;16.994;2023-09-12T03:18:56;15.13;;;7.73;;
75628;SDS011;64213;46.452;16.994;2023-09-12T03:21:58;18.75;;;8.77;;
75628;SDS011;64213;46.452;16.994;2023-09-12T03:25:01;17.65;;;8.70;;
75628;SDS011;64213;46.452;16.994;2023-09-12T03:28:04;17.98;;;8.23;;
75628;SDS011;64213;46.452;16.994;2023-09-12T03:31:11;15.30;;;8.73;;
75628;SDS011;64213;46.452;16.994;2023-09-12T03:34:16;16.50;;;8.27;;
75628;SDS011;64213;46.452;16.994;2023-09-12T03:37:18;15.73;;;8.02;;
75628;SDS011;64213;46.452;16.994;2023-09-12T03:40:20;17.17;;;8.77;;
75628;SDS011;64213;46.452;16.994;2023-09-12T03:43:23;18.42;;;7.60;;
75628;SDS011;64213;46.452;16.994;2023-09-12T03:46:25;16.47;;;8.70;;
75628;SDS011;64213;46.452;16.994;2023-09-12T03:49:27;16.53;;;8.00;;
75628;SDS011;64213;46.452;16.994;2023-09-12T03:52:30;15.75;;;8.40;;
75628;SDS011;64213;46.452;16.994;2023-09-12T03:55:32;15.73;;;8.02;;
75628;SDS011;64213;46.452;16.994;2023-09-12T03:58:35;14.23;;;7.68;;
75628;SDS011;64213;46.452;16.994;2023-09-12T04:01:37;18.05;;;8.60;;
75628;SDS011;64213;46.452;16.994;2023-09-12T04:04:39;17.87;;;8.90;;
75628;SDS011;64213;46.452;16.994;2023-09-12T04:07:42;16.70;;;9.02;;
75628;SDS011;64213;46.452;16.994;2023-09-12T04:10:44;16.30;;;8.65;;
75628;SDS011;64213;46.452;16.994;2023-09-12T04:13:46;17.67;;;8.95;;
75628;SDS011;64213;46.452;16.994;2023-09-12T04:16:48;21.23;;;9.40;;
75628;SDS011;64213;46.452;16.994;2023-09-12T04:19:51;19.70;;;8.80;;
75628;SDS011;64213;46.452;16.994;2023-09-12T04:22:53;20.02;;;9.32;;
75628;SDS011;64213;46.452;16.994;2023-09-12T04:25:55;18.00;;;8.30;;
75628;SDS011;64213;46.452;16.994;2023-09-12T04:28:57;17.55;;;8.65;;
75628;SDS011;64213;46.452;16.994;2023-09-12T04:31:59;16.63;;;8.47;;
75628;SDS011;64213;46.452;16.994;2023-09-12T04:35:02;16.87;;;8.67;;
75628;SDS011;64213;46.452;16.994;2023-09-12T04:38:05;14.80;;;7.95;;
75628;SDS011;64213;46.452;16.994;2023-09-12T04:41:07;16.02;;;9.25;;
75628;SDS011;64213;46.452;16.994;2023-09-12T04:44:09;18.42;;;8.82;;
75628;SDS011;64213;46.452;16.994;2023-09-12T04:47:12;17.65;;;8.90;;
75628;SDS011;64213;46.452;16.994;2023-09-12T04:50:14;16.50;;;8.63;;
75628;SDS011;64213;46.452;16.994;2023-09-12T04:53:17;25.95;;;9.90;;
75628;SDS011;64213;46.452;16.994;2023-09-12T04:56:19;19.92;;;9.73;;
75628;SDS011;64213;46.452;16.994;2023-09-12T04:59:21;20.15;;;9.45;;
75628;SDS011;64213;46.452;16.994;2023-09-12T05:02:24;15.38;;;8.90;;
75628;SDS011;64213;46.452;16.994;2023-09-12T05:05:27;16.63;;;8.80;;
75628;SDS011;64213;46.452;16.994;2023-09-12T05:08:29;16.42;;;7.78;;
75628;SDS011;64213;46.452;16.994;2023-09-12T05:11:32;14.60;;;7.80;;
75628;SDS011;64213;46.452;16.994;2023-09-12T05:14:34;18.15;;;7.93;;
75628;SDS011;64213;46.452;16.994;2023-09-12T05:17:36;16.70;;;7.60;;
75628;SDS011;64213;46.452;16.994;2023-09-12T05:20:38;17.13;;;7.27;;
75628;SDS011;64213;46.452;16.994;2023-09-12T05:23:40;15.30;;;7.32;;
75628;SDS011;64213;46.452;16.994;2023-09-12T05:26:43;18.10;;;7.15;;
75628;SDS011;64213;46.452;16.994;2023-09-12T05:29:45;14.45;;;6.93;;
75628;SDS011;64213;46.452;16.994;2023-09-12T05:32:47;14.48;;;6.65;;
75628;SDS011;64213;46.452;16.994;2023-09-12T05:35:50;15.60;;;6.90;;
75628;SDS011;64213;46.452;16.994;2023-09-12T05:38:52;15.63;;;7.20;;
75628;SDS011;64213;46.452;16.994;2023-09-12T05:41:54;13.93;;;6.90;;
75628;SDS011;64213;46.452;16.994;2023-09-12T05:44:57;14.68;;;7.55;;
75628;SDS011;64213;46.452;16.994;2023-09-12T05:47:59;15.60;;;8.35;;
75628;SDS011;64213;46.452;16.994;2023-09-12T05:51:02;17.23;;;8.53;;
75628;SDS011;64213;46.452;16.994;2023-09-12T05:54:04;19.87;;;8.82;;
75628;SDS011;64213;46.452;16.994;2023-09-12T05:57:07;14.80;;;7.95;;
75628;SDS011;64213;46.452;16.994;2023-09-12T06:00:11;19.50;;;7.97;;
75628;SDS011;64213;46.452;16.994;2023-09-12T06:03:14;16.95;;;7.72;;
75628;SDS011;64213;46.452;16.994;2023-09-12T06:06:17;14.23;;;7.50;;
75628;SDS011;64213;46.452;16.994;2023-09-12T06:09:20;17.00;;;8.35;;
75628;SDS011;64213;46.452;16.994;2023-09-12T06:12:22;16.35;;;8.48;;
75628;SDS011;64213;46.452;16.994;2023-09-12T06:15:25;13.90;;;7.70;;
75628;SDS011;64213;46.452;16.994;2023-09-12T06:18:28;16.87;;;9.32;;
75628;SDS011;64213;46.452;16.994;2023-09-12T06:21:33;20.90;;;9.57;;
75628;SDS011;64213;46.452;16.994;2023-09-12T06:24:35;24.45;;;10.77;;
75628;SDS011;64213;46.452;16.994;2023-09-12T06:27:38;20.25;;;11.38;;
75628;SDS011;64213;46.452;16.994;2023-09-12T06:30:40;18.40;;;9.75;;
75628;SDS011;64213;46.452;16.994;2023-09-12T06:33:43;16.33;;;9.18;;
75628;SDS011;64213;46.452;16.994;2023-09-12T06:36:45;16.80;;;9.37;;
75628;SDS011;64213;46.452;16.994;2023-09-12T06:39:49;18.48;;;9.38;;
75628;SDS011;64213;46.452;16.994;2023-09-12T06:42:52;17.98;;;8.90;;
75628;SDS011;64213;46.452;16.994;2023-09-12T06:45:55;18.20;;;8.75;;
75628;SDS011;64213;46.452;16.994;2023-09-12T06:48:57;21.80;;;8.93;;
75628;SDS011;64213;46.452;16.994;2023-09-12T06:52:00;19.53;;;9.57;;
75628;SDS011;64213;46.452;16.994;2023-09-12T06:55:02;17.00;;;10.23;;
75628;SDS011;64213;46.452;16.994;2023-09-12T06:58:05;19.92;;;12.05;;
75628;SDS011;64213;46.452;16.994;2023-09-12T07:01:07;19.10;;;13.23;;
75628;SDS011;64213;46.452;16.994;2023-09-12T07:04:10;20.75;;;13.18;;
75628;SDS011;64213;46.452;16.994;2023-09-12T07:07:12;19.50;;;13.57;;
75628;SDS011;64213;46.452;16.994;2023-09-12T07:10:15;19.02;;;13.60;;
75628;SDS011;64213;46.452;16.994;2023-09-12T07:13:25;19.25;;;13.32;;
75628;SDS011;64213;46.452;16.994;2023-09-12T07:16:27;21.87;;;12.80;;
75628;SDS011;64213;46.452;16.994;2023-09-12T07:19:30;18.08;;;12.23;;
75628;SDS011;64213;46.452;16.994;2023-09-12T07:22:32;17.77;;;12.00;;
75628;SDS011;64213;46.452;16.994;2023-09-12T07:25:41;19.40;;;12.52;;
75628;SDS011;64213;46.452;16.994;2023-09-12T07:28:43;18.98;;;12.60;;
75628;SDS011;64213;46.452;16.994;2023-09-12T07:31:46;21.83;;;13.13;;
75628;SDS011;64213;46.452;16.994;2023-09-12T07:34:48;18.30;;;13.48;;
75628;SDS011;64213;46.452;16.994;2023-09-12T07:37:51;20.13;;;14.00;;
75628;SDS011;64213;46.452;16.994;2023-09-12T07:40:53;19.27;;;12.77;;
75628;SDS011;64213;46.452;16.994;2023-09-12T07:43:55;17.83;;;13.18;;
75628;SDS011;64213;46.452;16.994;2023-09-12T07:46:58;18.55;;;12.63;;
75628;SDS011;64213;46.452;16.994;2023-09-12T07:50:01;19.75;;;12.57;;
75628;SDS011;64213;46.452;16.994;2023-09-12T07:53:04;19.10;;;12.77;;
75628;SDS011;64213;46.452;16.994;2023-09-12T07:56:08;18.17;;;12.82;;
75628;SDS011;64213;46.452;16.994;2023-09-12T07:59:12;20.17;;;11.88;;
75628;SDS011;64213;46.452;16.994;2023-09-12T08:02:15;19.45;;;12.00;;
75628;SDS011;64213;46.452;16.994;2023-09-12T08:05:18;18.23;;;13.25;;
75628;SDS011;64213;46.452;16.994;2023-09-12T08:08:21;22.13;;;12.67;;
75628;SDS011;64213;46.452;16.994;2023-09-12T08:11:23;17.70;;;12.40;;
75628;SDS011;64213;46.452;16.994;2023-09-12T08:14:26;18.30;;;12.95;;
75628;SDS011;64213;46.452;16.994;2023-09-12T08:17:28;20.62;;;12.65;;
75628;SDS011;64213;46.452;16.994;2023-09-12T08:20:31;18.60;;;12.07;;
75628;SDS011;64213;46.452;16.994;2023-09-12T08:23:33;18.13;;;12.30;;
75628;SDS011;64213;46.452;16.994;2023-09-12T08:26:36;16.25;;;12.18;;
75628;SDS011;64213;46.452;16.994;2023-09-12T08:29:38;14.38;;;11.63;;
75628;SDS011;64213;46.452;16.994;2023-09-12T08:32:41;14.75;;;11.65;;
75628;SDS011;64213;46.452;16.994;2023-09-12T08:35:46;16.33;;;12.00;;
75628;SDS011;64213;46.452;16.994;2023-09-12T08:38:48;18.73;;;12.47;;
75628;SDS011;64213;46.452;16.994;2023-09-12T08:41:51;16.00;;;11.18;;
75628;SDS011;64213;46.452;16.994;2023-09-12T08:44:54;15.93;;;11.32;;
75628;SDS011;64213;46.452;16.994;2023-09-12T08:47:58;17.52;;;12.20;;
75628;SDS011;64213;46.452;16.994;2023-09-12T08:51:02;16.08;;;11.55;;
75628;SDS011;64213;46.452;16.994;2023-09-12T08:54:09;15.10;;;10.90;;
75628;SDS011;64213;46.452;16.994;2023-09-12T08:57:11;18.58;;;11.57;;
75628;SDS011;64213;46.452;16.994;2023-09-12T09:00:15;16.55;;;11.90;;
75628;SDS011;64213;46.452;16.994;2023-09-12T09:03:18;15.07;;;11.75;;
75628;SDS011;64213;46.452;16.994;2023-09-12T09:06:21;16.10;;;11.60;;
75628;SDS011;64213;46.452;16.994;2023-09-12T09:09:25;15.53;;;11.93;;
75628;SDS011;64213;46.452;16.994;2023-09-12T09:12:29;16.48;;;10.85;;
75628;SDS011;64213;46.452;16.994;2023-09-12T09:15:31;15.43;;;11.25;;
75628;SDS011;64213;46.452;16.994;2023-09-12T09:18:49;15.02;;;11.18;;
75628;SDS011;64213;46.452;16.994;2023-09-12T09:22:05;14.87;;;10.75;;
75628;SDS011;64213;46.452;16.994;2023-09-12T09:25:11;14.47;;;10.60;;
75628;SDS011;64213;46.452;16.994;2023-09-12T09:28:18;15.32;;;10.60;;
75628;SDS011;64213;46.452;16.994;2023-09-12T09:31:21;13.05;;;10.25;;
75628;SDS011;64213;46.452;16.994;2023-09-12T09:34:24;14.77;;;10.00;;
75628;SDS011;64213;46.452;16.994;2023-09-12T09:37:29;17.37;;;10.68;;
75628;SDS011;64213;46.452;16.994;2023-09-12T09:40:32;18.67;;;11.37;;
75628;SDS011;64213;46.452;16.994;2023-09-12T09:43:35;14.73;;;9.80;;
75628;SDS011;64213;46.452;16.994;2023-09-12T09:46:37;14.43;;;9.90;;
75628;SDS011;64213;46.452;16.994;2023-09-12T09:49:40;16.55;;;9.35;;
75628;SDS011;64213;46.452;16.994;2023-09-12T09:52:43;17.98;;;10.00;;
75628;SDS011;64213;46.452;16.994;2023-09-12T09:55:46;14.47;;;9.93;;
75628;SDS011;64213;46.452;16.994;2023-09-12T09:58:49;14.82;;;9.75;;
75628;SDS011;64213;46.452;16.994;2023-09-12T10:01:55;17.05;;;10.05;;
75628;SDS011;64213;46.452;16.994;2023-09-12T10:05:00;15.45;;;9.95;;
75628;SDS011;64213;46.452;16.994;2023-09-12T10:08:06;14.68;;;9.73;;
75628;SDS011;64213;46.452;16.994;2023-09-12T10:11:14;13.53;;;9.70;;
75628;SDS011;64213;46.452;16.994;2023-09-12T10:14:19;14.27;;;9.43;;
75628;SDS011;64213;46.452;16.994;2023-09-12T10:17:22;16.85;;;10.43;;
75628;SDS011;64213;46.452;16.994;2023-09-12T10:20:33;15.98;;;10.15;;
75628;SDS011;64213;46.452;16.994;2023-09-12T10:23:44;13.95;;;9.85;;
75628;SDS011;64213;46.452;16.994;2023-09-12T10:26:48;15.03;;;11.13;;
75628;SDS011;64213;46.452;16.994;2023-09-12T10:29:52;12.50;;;9.15;;
75628;SDS011;64213;46.452;16.994;2023-09-12T10:32:55;16.35;;;9.63;;
75628;SDS011;64213;46.452;16.994;2023-09-12T10:35:59;17.90;;;10.60;;
75628;SDS011;64213;46.452;16.994;2023-09-12T10:39:03;14.65;;;10.77;;
75628;SDS011;64213;46.452;16.994;2023-09-12T10:42:07;15.53;;;10.53;;
75628;SDS011;64213;46.452;16.994;2023-09-12T10:45:10;13.52;;;9.52;;
75628;SDS011;64213;46.452;16.994;2023-09-12T10:48:12;13.80;;;9.55;;
75628;SDS011;64213;46.452;16.994;2023-09-12T10:51:15;14.20;;;10.40;;
75628;SDS011;64213;46.452;16.994;2023-09-12T10:54:23;17.02;;;10.55;;
75628;SDS011;64213;46.452;16.994;2023-09-12T10:57:26;17.70;;;10.83;;
75628;SDS011;64213;46.452;16.994;2023-09-12T11:00:30;14.13;;;9.57;;
75628;SDS011;64213;46.452;16.994;2023-09-12T11:03:36;13.80;;;10.07;;
75628;SDS011;64213;46.452;16.994;2023-09-12T11:06:40;15.45;;;9.63;;
75628;SDS011;64213;46.452;16.994;2023-09-12T11:09:42;14.48;;;9.50;;
75628;SDS011;64213;46.452;16.994;2023-09-12T11:12:47;15.07;;;10.40;;
75628;SDS011;64213;46.452;16.994;2023-09-12T11:16:15;16.60;;;9.98;;
75628;SDS011;64213;46.452;16.994;2023-09-12T11:19:22;18.62;;;10.18;;
75628;SDS011;64213;46.452;16.994;2023-09-12T11:22:29;13.75;;;9.55;;
75628;SDS011;64213;46.452;16.994;2023-09-12T11:25:33;19.58;;;8.57;;
75628;SDS011;64213;46.452;16.994;2023-09-12T11:28:38;15.50;;;9.63;;
75628;SDS011;64213;46.452;16.994;2023-09-12T11:31:41;15.60;;;9.73;;
75628;SDS011;64213;46.452;16.994;2023-09-12T11:34:59;17.12;;;10.43;;
75628;SDS011;64213;46.452;16.994;2023-09-12T11:38:09;14.98;;;9.90;;
75628;SDS011;64213;46.452;16.994;2023-09-12T11:41:13;14.65;;;9.60;;
75628;SDS011;64213;46.452;16.994;2023-09-12T11:44:15;14.60;;;9.30;;
75628;SDS011;64213;46.452;16.994;2023-09-12T11:47:18;18.60;;;9.73;;
75628;SDS011;64213;46.452;16.994;2023-09-12T11:50:35;15.55;;;9.27;;
75628;SDS011;64213;46.452;16.994;2023-09-12T11:53:40;13.02;;;8.57;;
75628;SDS011;64213;46.452;16.994;2023-09-12T11:56:43;14.90;;;9.13;;
75628;SDS011;64213;46.452;16.994;2023-09-12T11:59:46;11.47;;;7.73;;
75628;SDS011;64213;46.452;16.994;2023-09-12T12:02:54;13.43;;;7.60;;
75628;SDS011;64213;46.452;16.994;2023-09-12T12:05:57;12.63;;;7.60;;
75628;SDS011;64213;46.452;16.994;2023-09-12T12:09:00;12.82;;;7.62;;
75628;SDS011;64213;46.452;16.994;2023-09-12T12:12:03;11.30;;;7.53;;
75628;SDS011;64213;46.452;16.994;2023-09-12T12:15:16;11.53;;;7.80;;
75628;SDS011;64213;46.452;16.994;2023-09-12T12:18:18;12.35;;;8.00;;
75628;SDS011;64213;46.452;16.994;2023-09-12T12:21:21;11.50;;;7.50;;
75628;SDS011;64213;46.452;16.994;2023-09-12T12:24:23;11.90;;;7.80;;
75628;SDS011;64213;46.452;16.994;2023-09-12T12:27:27;12.45;;;8.32;;
75628;SDS011;64213;46.452;16.994;2023-09-12T12:30:30;11.97;;;7.70;;
75628;SDS011;64213;46.452;16.994;2023-09-12T12:33:34;11.27;;;8.05;;
75628;SDS011;64213;46.452;16.994;2023-09-12T12:36:57;13.40;;;8.50;;
75628;SDS011;64213;46.452;16.994;2023-09-12T12:40:00;10.75;;;7.82;;
75628;SDS011;64213;46.452;16.994;2023-09-12T12:43:03;14.10;;;8.35;;
75628;SDS011;64213;46.452;16.994;2023-09-12T12:46:09;10.60;;;7.90;;
75628;SDS011;64213;46.452;16.994;2023-09-12T12:49:17;12.40;;;8.07;;
75628;SDS011;64213;46.452;16.994;2023-09-12T12:52:23;14.13;;;8.48;;
75628;SDS011;64213;46.452;16.994;2023-09-12T12:55:27;14.30;;;8.13;;
75628;SDS011;64213;46.452;16.994;2023-09-12T12:58:29;12.65;;;8.43;;
75628;SDS011;64213;46.452;16.994;2023-09-12T13:01:36;16.13;;;8.07;;
75628;SDS011;64213;46.452;16.994;2023-09-12T13:04:39;11.52;;;6.87;;
75628;SDS011;64213;46.452;16.994;2023-09-12T13:07:42;11.88;;;7.90;;
75628;SDS011;64213;46.452;16.994;2023-09-12T13:10:44;12.60;;;7.47;;
75628;SDS011;64213;46.452;16.994;2023-09-12T13:13:47;11.57;;;8.10;;
75628;SDS011;64213;46.452;16.994;2023-09-12T13:16:52;13.17;;;8.23;;
75628;SDS011;64213;46.452;16.994;2023-09-12T13:19:56;13.10;;;7.28;;
75628;SDS011;64213;46.452;16.994;2023-09-12T13:22:58;12.82;;;6.93;;
75628;SDS011;64213;46.452;16.994;2023-09-12T13:26:00;11.95;;;6.47;;
75628;SDS011;64213;46.452;16.994;2023-09-12T13:29:03;11.12;;;7.43;;
75628;SDS011;64213;46.452;16.994;2023-09-12T13:32:05;13.00;;;8.67;;
75628;SDS011;64213;46.452;16.994;2023-09-12T13:35:08;15.90;;;11.05;;
75628;SDS011;64213;46.452;16.994;2023-09-12T13:38:10;16.20;;;10.13;;
75628;SDS011;64213;46.452;16.994;2023-09-12T13:41:13;12.57;;;8.70;;
75628;SDS011;64213;46.452;16.994;2023-09-12T13:44:16;13.98;;;8.70;;
75628;SDS011;64213;46.452;16.994;2023-09-12T13:47:19;9.70;;;7.20;;
75628;SDS011;64213;46.452;16.994;2023-09-12T13:50:25;10.38;;;6.70;;
75628;SDS011;64213;46.452;16.994;2023-09-12T13:53:29;13.55;;;7.97;;
75628;SDS011;64213;46.452;16.994;2023-09-12T13:56:32;12.45;;;7.93;;
75628;SDS011;64213;46.452;16.994;2023-09-12T13:59:35;10.50;;;6.75;;
75628;SDS011;64213;46.452;16.994;2023-09-12T14:02:46;10.53;;;6.33;;
75628;SDS011;64213;46.452;16.994;2023-09-12T14:05:49;12.65;;;6.50;;
75628;SDS011;64213;46.452;16.994;2023-09-12T14:08:52;10.80;;;7.20;;
75628;SDS011;64213;46.452;16.994;2023-09-12T14:11:55;10.35;;;6.62;;
75628;SDS011;64213;46.452;16.994;2023-09-12T14:14:58;10.63;;;6.82;;
75628;SDS011;64213;46.452;16.994;2023-09-12T14:18:09;11.13;;;6.60;;
75628;SDS011;64213;46.452;16.994;2023-09-12T14:21:14;12.00;;;6.85;;
75628;SDS011;64213;46.452;16.994;2023-09-12T14:24:18;11.52;;;7.45;;
75628;SDS011;64213;46.452;16.994;2023-09-12T14:27:22;10.38;;;6.87;;
75628;SDS011;64213;46.452;16.994;2023-09-12T14:30:28;11.70;;;7.22;;
75628;SDS011;64213;46.452;16.994;2023-09-12T14:33:37;11.67;;;6.97;;
75628;SDS011;64213;46.452;16.994;2023-09-12T14:36:40;11.95;;;6.70;;
75628;SDS011;64213;46.452;16.994;2023-09-12T14:39:43;11.93;;;6.82;;
75628;SDS011;64213;46.452;16.994;2023-09-12T14:42:45;18.17;;;6.70;;
75628;SDS011;64213;46.452;16.994;2023-09-12T14:45:48;10.57;;;6.62;;
75628;SDS011;64213;46.452;16.994;2023-09-12T14:48:51;11.77;;;6.50;;
75628;SDS011;64213;46.452;16.994;2023-09-12T14:52:03;10.88;;;7.05;;
75628;SDS011;64213;46.452;16.994;2023-09-12T14:55:15;11.88;;;6.75;;
75628;SDS011;64213;46.452;16.994;2023-09-12T14:58:19;11.88;;;7.12;;
75628;SDS011;64213;46.452;16.994;2023-09-12T15:01:21;11.20;;;7.30;;
75628;SDS011;64213;46.452;16.994;2023-09-12T15:04:27;11.00;;;6.70;;
75628;SDS011;64213;46.452;16.994;2023-09-12T15:07:30;12.27;;;6.80;;
75628;SDS011;64213;46.452;16.994;2023-09-12T15:10:34;12.45;;;6.87;;
75628;SDS011;64213;46.452;16.994;2023-09-12T15:13:37;10.73;;;6.68;;
75628;SDS011;64213;46.452;16.994;2023-09-12T15:16:43;11.70;;;6.75;;
75628;SDS011;64213;46.452;16.994;2023-09-12T15:19:46;11.80;;;6.83;;
75628;SDS011;64213;46.452;16.994;2023-09-12T15:22:49;10.40;;;6.50;;
75628;SDS011;64213;46.452;16.994;2023-09-12T15:25:51;10.80;;;6.68;;
75628;SDS011;64213;46.452;16.994;2023-09-12T15:28:54;12.13;;;6.80;;
75628;SDS011;64213;46.452;16.994;2023-09-12T15:31:58;12.85;;;6.97;;
75628;SDS011;64213;46.452;16.994;2023-09-12T15:35:02;12.37;;;6.77;;
75628;SDS011;64213;46.452;16.994;2023-09-12T15:38:05;10.70;;;6.65;;
75628;SDS011;64213;46.452;16.994;2023-09-12T15:41:08;12.90;;;7.05;;
75628;SDS011;64213;46.452;16.994;2023-09-12T15:44:10;11.77;;;7.00;;
75628;SDS011;64213;46.452;16.994;2023-09-12T15:47:17;12.25;;;6.78;;
75628;SDS011;64213;46.452;16.994;2023-09-12T15:50:21;12.33;;;7.30;;
75628;SDS011;64213;46.452;16.994;2023-09-12T15:53:24;12.82;;;6.95;;
75628;SDS011;64213;46.452;16.994;2023-09-12T15:56:27;13.45;;;7.10;;
75628;SDS011;64213;46.452;16.994;2023-09-12T15:59:29;11.40;;;6.80;;
75628;SDS011;64213;46.452;16.994;2023-09-12T16:02:33;11.77;;;6.78;;
75628;SDS011;64213;46.452;16.994;2023-09-12T16:05:35;10.30;;;6.17;;
75628;SDS011;64213;46.452;16.994;2023-09-12T16:08:38;15.07;;;7.20;;
75628;SDS011;64213;46.452;16.994;2023-09-12T16:11:41;11.40;;;7.37;;
75628;SDS011;64213;46.452;16.994;2023-09-12T16:14:44;10.65;;;6.82;;
75628;SDS011;64213;46.452;16.994;2023-09-12T16:17:47;14.40;;;6.87;;
75628;SDS011;64213;46.452;16.994;2023-09-12T16:20:50;12.47;;;7.20;;
75628;SDS011;64213;46.452;16.994;2023-09-12T16:23:53;11.02;;;6.68;;
75628;SDS011;64213;46.452;16.994;2023-09-12T16:26:56;11.75;;;7.03;;
75628;SDS011;64213;46.452;16.994;2023-09-12T16:30:03;13.35;;;7.22;;
75628;SDS011;64213;46.452;16.994;2023-09-12T16:33:10;12.73;;;7.00;;
75628;SDS011;64213;46.452;16.994;2023-09-12T16:36:13;12.63;;;7.37;;
75628;SDS011;64213;46.452;16.994;2023-09-12T16:39:16;13.52;;;7.15;;
75628;SDS011;64213;46.452;16.994;2023-09-12T16:42:20;14.35;;;7.20;;
75628;SDS011;64213;46.452;16.994;2023-09-12T16:45:23;11.65;;;7.00;;
75628;SDS011;64213;46.452;16.994;2023-09-12T16:48:26;12.50;;;6.72;;
75628;SDS011;64213;46.452;16.994;2023-09-12T16:51:29;12.90;;;7.07;;
75628;SDS011;64213;46.452;16.994;2023-09-12T16:54:31;15.13;;;6.90;;
75628;SDS011;64213;46.452;16.994;2023-09-12T16:57:34;11.68;;;6.53;;
75628;SDS011;64213;46.452;16.994;2023-09-12T17:00:37;14.75;;;7.12;;
75628;SDS011;64213;46.452;16.994;2023-09-12T17:03:42;12.15;;;8.43;;
75628;SDS011;64213;46.452;16.994;2023-09-12T17:06:47;13.43;;;7.23;;
75628;SDS011;64213;46.452;16.994;2023-09-12T17:09:50;14.10;;;7.25;;
75628;SDS011;64213;46.452;16.994;2023-09-12T17:12:55;13.35;;;7.70;;
75628;SDS011;64213;46.452;16.994;2023-09-12T17:15:58;14.07;;;7.43;;
75628;SDS011;64213;46.452;16.994;2023-09-12T17:19:02;11.98;;;7.57;;
75628;SDS011;64213;46.452;16.994;2023-09-12T17:22:04;14.37;;;9.33;;
75628;SDS011;64213;46.452;16.994;2023-09-12T17:25:07;15.07;;;9.55;;
75628;SDS011;64213;46.452;16.994;2023-09-12T17:28:10;15.82;;;9.40;;
75628;SDS011;64213;46.452;16.994;2023-09-12T17:31:13;15.98;;;9.68;;
75628;SDS011;64213;46.452;16.994;2023-09-12T17:34:17;16.45;;;7.72;;
75628;SDS011;64213;46.452;16.994;2023-09-12T17:37:20;12.73;;;8.13;;
75628;SDS011;64213;46.452;16.994;2023-09-12T17:40:25;15.60;;;8.60;;
75628;SDS011;64213;46.452;16.994;2023-09-12T17:43:28;16.30;;;8.00;;
75628;SDS011;64213;46.452;16.994;2023-09-12T17:46:32;14.23;;;8.13;;
75628;SDS011;64213;46.452;16.994;2023-09-12T17:49:35;12.55;;;7.85;;
75628;SDS011;64213;46.452;16.994;2023-09-12T17:52:38;15.57;;;8.20;;
75628;SDS011;64213;46.452;16.994;2023-09-12T17:55:43;15.02;;;8.60;;
75628;SDS011;64213;46.452;16.994;2023-09-12T17:58:48;14.27;;;8.65;;